Alaska — SYDS — position and weather

sailwx.info

Track history (hours):
 
Tides and Currents Weather Stations Pressure Air Temp Water Temp Dewpoint Dewpoint Depression Visibility Wind Speed Wind Dir Waves Ship Positions

Alaska

Last reported at 2016-Mar-29 12:31 UTC. Time now 2016-May-01 02:22 UTC.
Position N 38°24' W 074°40'.
Warning: this ship's position is 32 days out of date.

Length 274 m; draft 9.5 m.

Type: Tanker. MMSI: 240472000.

Date/timePositionNaut miles runAvg speedWind from/ knotsBaromVisibWave heightAir tempDewpointWater temp
2016-Mar-29 12:31N 38°24' W 074°40'1414.4
2016-Mar-29 11:34N 38°35' W 074°51'1515.2
2016-Mar-29 10:33N 38°47' W 075°03'1313.4
2016-Mar-29 09:34N 38°60' W 075°08'1615.7
2016-Mar-29 08:34N 39°14' W 075°18'1614.8
2016-Mar-29 07:30N 39°25' W 075°31'1111.9
2016-Mar-29 06:34N 39°36' W 075°34'1010.4
2016-Mar-29 05:33N 39°46' W 075°29'5 4.8
2016-Mar-29 04:33N 39°49' W 075°24'0 0.1
2016-Mar-29 03:33N 39°49' W 075°24'0 0.0
2016-Mar-29 02:33N 39°49' W 075°24'0 0.0
2016-Mar-29 01:33N 39°49' W 075°24'0 0.0
2016-Mar-29 00:33N 39°49' W 075°24'0 0.2
2016-Mar-28 23:33N 39°49' W 075°24'0 0.1
2016-Mar-28 22:33N 39°49' W 075°23'0 0.1
2016-Mar-28 21:33N 39°49' W 075°23'0 0.0
2016-Mar-28 20:33N 39°49' W 075°23'0 0.0
2016-Mar-28 19:33N 39°49' W 075°23'0 0.0
2016-Mar-28 18:33N 39°49' W 075°23'0 0.0
2016-Mar-28 17:33N 39°49' W 075°23'0 0.1
2016-Mar-28 16:33N 39°49' W 075°23'1 1.2
2016-Mar-28 15:33N 39°50' W 075°22'8 7.4
2016-Mar-28 14:32N 39°52' W 075°13'0 0.0
2016-Mar-28 13:32N 39°52' W 075°13'0 0.0
2016-Mar-28 12:32N 39°52' W 075°13'0 0.0
2016-Mar-28 11:32N 39°52' W 075°13'0 0.0
2016-Mar-28 10:32N 39°52' W 075°13'0 0.0
2016-Mar-28 09:32N 39°52' W 075°13'0 0.0
2016-Mar-28 08:32N 39°52' W 075°13'0 0.0
2016-Mar-28 07:32N 39°52' W 075°13'0 0.0
2016-Mar-28 06:32N 39°52' W 075°13'0 0.0
2016-Mar-28 05:32N 39°52' W 075°13'0 0.0
2016-Mar-28 04:32N 39°52' W 075°13'0 0.0
2016-Mar-28 03:29N 39°52' W 075°13'0 0.0
2016-Mar-28 02:32N 39°52' W 075°13'0 0.0
2016-Mar-28 01:32N 39°52' W 075°13'0 0.0
2016-Mar-28 00:29N 39°52' W 075°13'0 0.0
2016-Mar-27 23:32N 39°52' W 075°13'0 0.0
2016-Mar-27 22:32N 39°52' W 075°13'0 0.0
2016-Mar-27 21:32N 39°52' W 075°13'0 0.0
2016-Mar-27 20:32N 39°52' W 075°13'0 0.0
2016-Mar-27 19:29N 39°52' W 075°13'0 0.0
2016-Mar-27 18:29N 39°52' W 075°13'0 0.0
2016-Mar-27 17:32N 39°52' W 075°13'0 0.0
2016-Mar-27 16:32N 39°52' W 075°13'0 0.0
2016-Mar-27 15:32N 39°52' W 075°13'0 0.0
2016-Mar-27 14:32N 39°52' W 075°13'0 0.0
2016-Mar-27 13:32N 39°52' W 075°13'0 0.0
2016-Mar-27 12:32N 39°52' W 075°13'0 0.0
2016-Mar-27 11:29N 39°52' W 075°13'0 0.0
2016-Mar-27 10:32N 39°52' W 075°13'0 0.0
2016-Mar-27 09:32N 39°52' W 075°13'0 0.0
2016-Mar-27 08:29N 39°52' W 075°13'0 0.0
2016-Mar-27 07:32N 39°52' W 075°13'1 0.9
2016-Mar-27 06:33N 39°52' W 075°14'5 5.3
2016-Mar-27 05:33N 39°51' W 075°21'8 7.7
2016-Mar-27 04:33N 39°46' W 075°29'9 8.6
2016-Mar-27 03:33N 39°38' W 075°34'9 8.8
2016-Mar-27 02:33N 39°30' W 075°34'1212.0
2016-Mar-27 01:33N 39°20' W 075°25'1312.7
2016-Mar-27 00:33N 39°09' W 075°15'1313.1
2016-Mar-26 23:34N 38°58' W 075°07'3 3.1
2016-Mar-26 22:33N 38°55' W 075°09'0 0.1
2016-Mar-26 21:33N 38°55' W 075°09'0 0.0
2016-Mar-26 20:33N 38°55' W 075°09'0 0.0
2016-Mar-26 19:33N 38°55' W 075°09'0 0.0
2016-Mar-26 18:33N 38°55' W 075°09'0 0.2
2016-Mar-26 17:33N 38°56' W 075°09'0 0.1
2016-Mar-26 16:33N 38°56' W 075°09'0 0.0
2016-Mar-26 15:33N 38°56' W 075°09'0 0.1
2016-Mar-26 14:33N 38°56' W 075°09'0 0.0
2016-Mar-26 13:33N 38°56' W 075°10'0 0.1
2016-Mar-26 12:33N 38°55' W 075°10'0 0.1
2016-Mar-26 11:33N 38°55' W 075°10'0 0.2
2016-Mar-26 10:33N 38°55' W 075°09'0 0.0
2016-Mar-26 09:33N 38°55' W 075°09'0 0.0
2016-Mar-26 08:33N 38°55' W 075°09'0 0.0
2016-Mar-26 07:33N 38°55' W 075°09'0 0.0
2016-Mar-26 06:33N 38°55' W 075°09'0 0.0
2016-Mar-26 05:33N 38°55' W 075°09'0 0.1
2016-Mar-26 04:33N 38°55' W 075°09'0 0.1
2016-Mar-26 03:33N 38°56' W 075°09'0 0.2
2016-Mar-26 02:33N 38°56' W 075°09'0 0.0
2016-Mar-26 01:33N 38°56' W 075°09'0 0.1
2016-Mar-26 00:30N 38°56' W 075°10'0 0.0
2016-Mar-25 23:33N 38°56' W 075°10'0 0.2
2016-Mar-25 22:30N 38°55' W 075°09'0 0.0
2016-Mar-25 21:33N 38°55' W 075°09'0 0.0
2016-Mar-25 20:33N 38°55' W 075°09'0 0.0
2016-Mar-25 19:33N 38°55' W 075°09'0 0.0
2016-Mar-25 18:33N 38°55' W 075°09'0 0.0
2016-Mar-25 17:33N 38°55' W 075°09'0 0.2
2016-Mar-25 16:30N 38°56' W 075°09'0 0.1
2016-Mar-25 15:33N 38°56' W 075°09'0 0.0
2016-Mar-25 14:33N 38°56' W 075°09'0 0.0
2016-Mar-25 13:33N 38°56' W 075°10'0 0.0
2016-Mar-25 12:33N 38°56' W 075°09'0 0.0
2016-Mar-25 11:33N 38°56' W 075°10'0 0.2
2016-Mar-25 10:33N 38°56' W 075°09'0 0.2
2016-Mar-25 09:33N 38°55' W 075°09'0 0.1
2016-Mar-25 08:33N 38°55' W 075°09'0 0.0
2016-Mar-25 07:33N 38°55' W 075°09'0 0.0
2016-Mar-25 06:33N 38°55' W 075°09'0 0.1
2016-Mar-25 05:33N 38°55' W 075°09'0 0.3
2016-Mar-25 04:33N 38°56' W 075°09'0 0.1
2016-Mar-25 03:33N 38°56' W 075°09'0 0.0
2016-Mar-25 02:33N 38°56' W 075°10'0 0.0
2016-Mar-25 01:33N 38°56' W 075°10'0 0.0
2016-Mar-25 00:33N 38°56' W 075°10'0 0.1
2016-Mar-24 23:33N 38°56' W 075°10'0 0.0
2016-Mar-24 22:33N 38°56' W 075°10'0 0.1
2016-Mar-24 17:33N 38°55' W 075°09'0 0.1
2016-Mar-24 16:30N 38°55' W 075°09'0 0.3
2016-Mar-24 15:33N 38°56' W 075°09'0 0.1
2016-Mar-24 14:33N 38°56' W 075°10'0 0.0
2016-Mar-24 13:33N 38°56' W 075°10'0 0.0
2016-Mar-24 12:33N 38°56' W 075°10'0 0.0
2016-Mar-24 11:33N 38°56' W 075°10'0 0.0
2016-Mar-24 10:33N 38°56' W 075°10'0 0.3
2016-Mar-24 09:33N 38°55' W 075°09'0 0.0
2016-Mar-24 08:33N 38°55' W 075°09'0 0.1
2016-Mar-24 07:33N 38°55' W 075°09'0 0.0
2016-Mar-24 06:33N 38°55' W 075°09'0 0.1
2016-Mar-24 05:33N 38°55' W 075°09'0 0.1
2016-Mar-24 04:33N 38°55' W 075°09'0 0.3
2016-Mar-24 03:33N 38°56' W 075°10'0 0.0
2016-Mar-24 02:33N 38°56' W 075°09'0 0.0
2016-Mar-24 01:33N 38°56' W 075°10'0 0.0
2016-Mar-24 00:33N 38°56' W 075°10'0 0.0
2016-Mar-23 23:33N 38°56' W 075°10'0 0.0
2016-Mar-23 22:33N 38°56' W 075°09'0 0.3
2016-Mar-23 21:33N 38°55' W 075°09'0 0.1
2016-Mar-23 20:30N 38°55' W 075°09'0 0.1
2016-Mar-23 19:33N 38°55' W 075°09'0 0.1
2016-Mar-23 18:33N 38°55' W 075°09'5 4.8
2016-Mar-23 17:33N 38°52' W 075°05'8 8.2
2016-Mar-23 16:33N 38°45' W 074°58'9 9.5
2016-Mar-23 15:33N 38°38' W 074°50'1010.3
2016-Mar-23 14:33N 38°30' W 074°42'  
Track history (hours):
 
Tides and Currents Weather Stations Pressure Air Temp Water Temp Dewpoint Dewpoint Depression Visibility Wind Speed Wind Dir Waves Ship Positions

Alaska

Last reported at 2016-Mar-29 12:31 UTC. Time now 2016-May-01 02:22 UTC.
Position N 38°24' W 074°40'.
Warning: this ship's position is 32 days out of date.

Length 274 m; draft 9.5 m.

Type: Tanker. MMSI: 240472000.

Date/timePositionNaut miles runAvg speedWind from/ knotsBaromVisibWave heightAir tempDewpointWater temp
2016-Mar-29 12:31N 38°24' W 074°40'1414.4
2016-Mar-29 11:34N 38°35' W 074°51'1515.2
2016-Mar-29 10:33N 38°47' W 075°03'1313.4
2016-Mar-29 09:34N 38°60' W 075°08'1615.7
2016-Mar-29 08:34N 39°14' W 075°18'1614.8
2016-Mar-29 07:30N 39°25' W 075°31'1111.9
2016-Mar-29 06:34N 39°36' W 075°34'1010.4
2016-Mar-29 05:33N 39°46' W 075°29'5 4.8
2016-Mar-29 04:33N 39°49' W 075°24'0 0.1
2016-Mar-29 03:33N 39°49' W 075°24'0 0.0
2016-Mar-29 02:33N 39°49' W 075°24'0 0.0
2016-Mar-29 01:33N 39°49' W 075°24'0 0.0
2016-Mar-29 00:33N 39°49' W 075°24'0 0.2
2016-Mar-28 23:33N 39°49' W 075°24'0 0.1
2016-Mar-28 22:33N 39°49' W 075°23'0 0.1
2016-Mar-28 21:33N 39°49' W 075°23'0 0.0
2016-Mar-28 20:33N 39°49' W 075°23'0 0.0
2016-Mar-28 19:33N 39°49' W 075°23'0 0.0
2016-Mar-28 18:33N 39°49' W 075°23'0 0.0
2016-Mar-28 17:33N 39°49' W 075°23'0 0.1
2016-Mar-28 16:33N 39°49' W 075°23'1 1.2
2016-Mar-28 15:33N 39°50' W 075°22'8 7.4
2016-Mar-28 14:32N 39°52' W 075°13'0 0.0
2016-Mar-28 13:32N 39°52' W 075°13'0 0.0
2016-Mar-28 12:32N 39°52' W 075°13'0 0.0
2016-Mar-28 11:32N 39°52' W 075°13'0 0.0
2016-Mar-28 10:32N 39°52' W 075°13'0 0.0
2016-Mar-28 09:32N 39°52' W 075°13'0 0.0
2016-Mar-28 08:32N 39°52' W 075°13'0 0.0
2016-Mar-28 07:32N 39°52' W 075°13'0 0.0
2016-Mar-28 06:32N 39°52' W 075°13'0 0.0
2016-Mar-28 05:32N 39°52' W 075°13'0 0.0
2016-Mar-28 04:32N 39°52' W 075°13'0 0.0
2016-Mar-28 03:29N 39°52' W 075°13'0 0.0
2016-Mar-28 02:32N 39°52' W 075°13'0 0.0
2016-Mar-28 01:32N 39°52' W 075°13'0 0.0
2016-Mar-28 00:29N 39°52' W 075°13'0 0.0
2016-Mar-27 23:32N 39°52' W 075°13'0 0.0
2016-Mar-27 22:32N 39°52' W 075°13'0 0.0
2016-Mar-27 21:32N 39°52' W 075°13'0 0.0
2016-Mar-27 20:32N 39°52' W 075°13'0 0.0
2016-Mar-27 19:29N 39°52' W 075°13'0 0.0
2016-Mar-27 18:29N 39°52' W 075°13'0 0.0
2016-Mar-27 17:32N 39°52' W 075°13'0 0.0
2016-Mar-27 16:32N 39°52' W 075°13'0 0.0
2016-Mar-27 15:32N 39°52' W 075°13'0 0.0
2016-Mar-27 14:32N 39°52' W 075°13'0 0.0
2016-Mar-27 13:32N 39°52' W 075°13'0 0.0
2016-Mar-27 12:32N 39°52' W 075°13'0 0.0
2016-Mar-27 11:29N 39°52' W 075°13'0 0.0
2016-Mar-27 10:32N 39°52' W 075°13'0 0.0
2016-Mar-27 09:32N 39°52' W 075°13'0 0.0
2016-Mar-27 08:29N 39°52' W 075°13'0 0.0
2016-Mar-27 07:32N 39°52' W 075°13'1 0.9
2016-Mar-27 06:33N 39°52' W 075°14'5 5.3
2016-Mar-27 05:33N 39°51' W 075°21'8 7.7
2016-Mar-27 04:33N 39°46' W 075°29'9 8.6
2016-Mar-27 03:33N 39°38' W 075°34'9 8.8
2016-Mar-27 02:33N 39°30' W 075°34'1212.0
2016-Mar-27 01:33N 39°20' W 075°25'1312.7
2016-Mar-27 00:33N 39°09' W 075°15'1313.1
2016-Mar-26 23:34N 38°58' W 075°07'3 3.1
2016-Mar-26 22:33N 38°55' W 075°09'0 0.1
2016-Mar-26 21:33N 38°55' W 075°09'0 0.0
2016-Mar-26 20:33N 38°55' W 075°09'0 0.0
2016-Mar-26 19:33N 38°55' W 075°09'0 0.0
2016-Mar-26 18:33N 38°55' W 075°09'0 0.2
2016-Mar-26 17:33N 38°56' W 075°09'0 0.1
2016-Mar-26 16:33N 38°56' W 075°09'0 0.0
2016-Mar-26 15:33N 38°56' W 075°09'0 0.1
2016-Mar-26 14:33N 38°56' W 075°09'0 0.0
2016-Mar-26 13:33N 38°56' W 075°10'0 0.1
2016-Mar-26 12:33N 38°55' W 075°10'0 0.1
2016-Mar-26 11:33N 38°55' W 075°10'0 0.2
2016-Mar-26 10:33N 38°55' W 075°09'0 0.0
2016-Mar-26 09:33N 38°55' W 075°09'0 0.0
2016-Mar-26 08:33N 38°55' W 075°09'0 0.0
2016-Mar-26 07:33N 38°55' W 075°09'0 0.0
2016-Mar-26 06:33N 38°55' W 075°09'0 0.0
2016-Mar-26 05:33N 38°55' W 075°09'0 0.1
2016-Mar-26 04:33N 38°55' W 075°09'0 0.1
2016-Mar-26 03:33N 38°56' W 075°09'0 0.2
2016-Mar-26 02:33N 38°56' W 075°09'0 0.0
2016-Mar-26 01:33N 38°56' W 075°09'0 0.1
2016-Mar-26 00:30N 38°56' W 075°10'0 0.0
2016-Mar-25 23:33N 38°56' W 075°10'0 0.2
2016-Mar-25 22:30N 38°55' W 075°09'0 0.0
2016-Mar-25 21:33N 38°55' W 075°09'0 0.0
2016-Mar-25 20:33N 38°55' W 075°09'0 0.0
2016-Mar-25 19:33N 38°55' W 075°09'0 0.0
2016-Mar-25 18:33N 38°55' W 075°09'0 0.0
2016-Mar-25 17:33N 38°55' W 075°09'0 0.2
2016-Mar-25 16:30N 38°56' W 075°09'0 0.1
2016-Mar-25 15:33N 38°56' W 075°09'0 0.0
2016-Mar-25 14:33N 38°56' W 075°09'0 0.0
2016-Mar-25 13:33N 38°56' W 075°10'0 0.0
2016-Mar-25 12:33N 38°56' W 075°09'0 0.0
2016-Mar-25 11:33N 38°56' W 075°10'0 0.2
2016-Mar-25 10:33N 38°56' W 075°09'0 0.2
2016-Mar-25 09:33N 38°55' W 075°09'0 0.1
2016-Mar-25 08:33N 38°55' W 075°09'0 0.0
2016-Mar-25 07:33N 38°55' W 075°09'0 0.0
2016-Mar-25 06:33N 38°55' W 075°09'0 0.1
2016-Mar-25 05:33N 38°55' W 075°09'0 0.3
2016-Mar-25 04:33N 38°56' W 075°09'0 0.1
2016-Mar-25 03:33N 38°56' W 075°09'0 0.0
2016-Mar-25 02:33N 38°56' W 075°10'0 0.0
2016-Mar-25 01:33N 38°56' W 075°10'0 0.0
2016-Mar-25 00:33N 38°56' W 075°10'0 0.1
2016-Mar-24 23:33N 38°56' W 075°10'0 0.0
2016-Mar-24 22:33N 38°56' W 075°10'0 0.1
2016-Mar-24 17:33N 38°55' W 075°09'0 0.1
2016-Mar-24 16:30N 38°55' W 075°09'0 0.3
2016-Mar-24 15:33N 38°56' W 075°09'0 0.1
2016-Mar-24 14:33N 38°56' W 075°10'0 0.0
2016-Mar-24 13:33N 38°56' W 075°10'0 0.0
2016-Mar-24 12:33N 38°56' W 075°10'0 0.0
2016-Mar-24 11:33N 38°56' W 075°10'0 0.0
2016-Mar-24 10:33N 38°56' W 075°10'0 0.3
2016-Mar-24 09:33N 38°55' W 075°09'0 0.0
2016-Mar-24 08:33N 38°55' W 075°09'0 0.1
2016-Mar-24 07:33N 38°55' W 075°09'0 0.0
2016-Mar-24 06:33N 38°55' W 075°09'0 0.1
2016-Mar-24 05:33N 38°55' W 075°09'0 0.1
2016-Mar-24 04:33N 38°55' W 075°09'0 0.3
2016-Mar-24 03:33N 38°56' W 075°10'0 0.0
2016-Mar-24 02:33N 38°56' W 075°09'0 0.0
2016-Mar-24 01:33N 38°56' W 075°10'0 0.0
2016-Mar-24 00:33N 38°56' W 075°10'0 0.0
2016-Mar-23 23:33N 38°56' W 075°10'0 0.0
2016-Mar-23 22:33N 38°56' W 075°09'0 0.3
2016-Mar-23 21:33N 38°55' W 075°09'0 0.1
2016-Mar-23 20:30N 38°55' W 075°09'0 0.1
2016-Mar-23 19:33N 38°55' W 075°09'0 0.1
2016-Mar-23 18:33N 38°55' W 075°09'5 4.8
2016-Mar-23 17:33N 38°52' W 075°05'8 8.2
2016-Mar-23 16:33N 38°45' W 074°58'9 9.5
2016-Mar-23 15:33N 38°38' W 074°50'1010.3
2016-Mar-23 14:33N 38°30' W 074°42'  

Dump ship's entire track history